sensor_id;sensor_type;location;lat;lon;timestamp;pressure;altitude;pressure_sealevel;temperature;humidity
54453;BME280;40363;52.270;10.546;2023-02-28T00:00:09;79380.19;;;-147.06;85.02
54453;BME280;40363;52.270;10.546;2023-02-28T00:02:37;79376.06;;;-147.06;85.38
54453;BME280;40363;52.270;10.546;2023-02-28T00:05:04;79386.38;;;-147.06;85.61
54453;BME280;40363;52.270;10.546;2023-02-28T00:07:32;79380.19;;;-147.06;85.26
54453;BME280;40363;52.270;10.546;2023-02-28T00:09:59;79388.41;;;-147.06;85.31
54453;BME280;40363;52.270;10.546;2023-02-28T00:12:26;79384.31;;;-147.06;85.45
54453;BME280;40363;52.270;10.546;2023-02-28T00:14:53;79390.47;;;-147.06;86.02
54453;BME280;40363;52.270;10.546;2023-02-28T00:17:19;79394.59;;;-147.06;86.63
54453;BME280;40363;52.270;10.546;2023-02-28T00:19:47;79398.69;;;-147.06;87.13
54453;BME280;40363;52.270;10.546;2023-02-28T00:22:14;79402.81;;;-147.06;87.09
54453;BME280;40363;52.270;10.546;2023-02-28T00:24:42;79400.75;;;-147.06;87.28
54453;BME280;40363;52.270;10.546;2023-02-28T00:27:09;79404.88;;;-147.06;87.36
54453;BME280;40363;52.270;10.546;2023-02-28T00:29:36;79400.75;;;-147.06;87.47
54453;BME280;40363;52.270;10.546;2023-02-28T00:32:04;79406.94;;;-147.06;87.19
54453;BME280;40363;52.270;10.546;2023-02-28T00:34:30;79409.00;;;-147.06;86.83
54453;BME280;40363;52.270;10.546;2023-02-28T00:37:03;79404.88;;;-147.06;87.36
54453;BME280;40363;52.270;10.546;2023-02-28T00:39:29;79415.16;;;-147.06;88.28
54453;BME280;40363;52.270;10.546;2023-02-28T00:41:57;79413.09;;;-147.06;88.16
54453;BME280;40363;52.270;10.546;2023-02-28T00:44:24;79417.22;;;-147.06;88.05
54453;BME280;40363;52.270;10.546;2023-02-28T00:46:50;79417.22;;;-147.06;87.71
54453;BME280;40363;52.270;10.546;2023-02-28T00:49:19;79413.09;;;-147.06;87.71
54453;BME280;40363;52.270;10.546;2023-02-28T00:51:46;79415.16;;;-147.06;88.02
54453;BME280;40363;52.270;10.546;2023-02-28T00:54:13;79419.28;;;-147.06;88.11
54453;BME280;40363;52.270;10.546;2023-02-28T00:56:39;79427.50;;;-147.06;88.39
54453;BME280;40363;52.270;10.546;2023-02-28T00:59:08;79417.22;;;-147.06;88.45
54453;BME280;40363;52.270;10.546;2023-02-28T01:01:35;79423.38;;;-147.06;88.64
54453;BME280;40363;52.270;10.546;2023-02-28T01:04:01;79415.16;;;-147.06;88.70
54453;BME280;40363;52.270;10.546;2023-02-28T01:06:28;79421.31;;;-147.06;89.15
54453;BME280;40363;52.270;10.546;2023-02-28T01:08:54;79417.22;;;-147.06;89.22
54453;BME280;40363;52.270;10.546;2023-02-28T01:11:21;79413.09;;;-147.06;89.05
54453;BME280;40363;52.270;10.546;2023-02-28T01:13:48;79409.00;;;-147.06;88.93
54453;BME280;40363;52.270;10.546;2023-02-28T01:16:16;79419.28;;;-147.06;89.08
54453;BME280;40363;52.270;10.546;2023-02-28T01:18:43;79417.22;;;-147.06;89.63
54453;BME280;40363;52.270;10.546;2023-02-28T01:21:12;79400.75;;;-147.06;89.35
54453;BME280;40363;52.270;10.546;2023-02-28T01:23:40;79394.59;;;-147.06;89.05
54453;BME280;40363;52.270;10.546;2023-02-28T01:26:09;79396.66;;;-147.06;88.91
54453;BME280;40363;52.270;10.546;2023-02-28T01:28:36;79409.00;;;-147.06;89.01
54453;BME280;40363;52.270;10.546;2023-02-28T01:31:03;79409.00;;;-147.06;89.53
54453;BME280;40363;52.270;10.546;2023-02-28T01:33:32;79404.88;;;-147.06;89.20
54453;BME280;40363;52.270;10.546;2023-02-28T01:36:00;79400.75;;;-147.06;89.63
54453;BME280;40363;52.270;10.546;2023-02-28T01:38:27;79388.41;;;-147.06;89.75
54453;BME280;40363;52.270;10.546;2023-02-28T01:40:54;79388.41;;;-147.06;89.56
54453;BME280;40363;52.270;10.546;2023-02-28T01:43:23;79388.41;;;-147.06;89.38
54453;BME280;40363;52.270;10.546;2023-02-28T01:45:51;79390.47;;;-147.06;89.54
54453;BME280;40363;52.270;10.546;2023-02-28T01:48:18;79382.25;;;-147.06;89.75
54453;BME280;40363;52.270;10.546;2023-02-28T01:50:47;79392.53;;;-147.06;89.76
54453;BME280;40363;52.270;10.546;2023-02-28T01:53:16;79396.66;;;-147.06;89.99
54453;BME280;40363;52.270;10.546;2023-02-28T01:55:47;79388.41;;;-147.06;89.84
54453;BME280;40363;52.270;10.546;2023-02-28T01:58:15;79384.31;;;-147.06;89.79
54453;BME280;40363;52.270;10.546;2023-02-28T02:00:42;79392.53;;;-147.06;89.65
54453;BME280;40363;52.270;10.546;2023-02-28T02:03:11;79392.53;;;-147.06;89.23
54453;BME280;40363;52.270;10.546;2023-02-28T02:05:39;79382.25;;;-147.06;88.88
54453;BME280;40363;52.270;10.546;2023-02-28T02:08:10;79396.66;;;-147.06;89.52
54453;BME280;40363;52.270;10.546;2023-02-28T02:10:41;79404.88;;;-147.06;89.74
54453;BME280;40363;52.270;10.546;2023-02-28T02:13:18;79413.09;;;-147.06;89.74
54453;BME280;40363;52.270;10.546;2023-02-28T02:15:53;79411.03;;;-147.06;90.41
54453;BME280;40363;52.270;10.546;2023-02-28T02:18:30;79415.16;;;-147.06;90.49
54453;BME280;40363;52.270;10.546;2023-02-28T02:21:18;79404.88;;;-147.06;90.48
54453;BME280;40363;52.270;10.546;2023-02-28T02:24:17;79404.88;;;-147.06;90.00
54453;BME280;40363;52.270;10.546;2023-02-28T02:27:05;79396.66;;;-147.06;89.01
54453;BME280;40363;52.270;10.546;2023-02-28T02:29:54;79384.31;;;-147.06;88.30
54453;BME280;40363;52.270;10.546;2023-02-28T02:35:30;79388.41;;;-147.06;87.66
54453;BME280;40363;52.270;10.546;2023-02-28T02:38:04;79396.66;;;-147.06;87.94
54453;BME280;40363;52.270;10.546;2023-02-28T02:40:38;79398.69;;;-147.06;88.35
54453;BME280;40363;52.270;10.546;2023-02-28T02:43:09;79404.88;;;-147.06;87.23
54453;BME280;40363;52.270;10.546;2023-02-28T02:45:43;79404.88;;;-147.06;88.61
54453;BME280;40363;52.270;10.546;2023-02-28T02:48:13;79390.47;;;-147.06;89.51
54453;BME280;40363;52.270;10.546;2023-02-28T02:50:45;79376.06;;;-147.06;89.28
54453;BME280;40363;52.270;10.546;2023-02-28T02:53:15;79384.31;;;-147.06;90.26
54453;BME280;40363;52.270;10.546;2023-02-28T02:55:47;79388.41;;;-147.06;90.14
54453;BME280;40363;52.270;10.546;2023-02-28T02:58:23;79380.19;;;-147.06;89.41
54453;BME280;40363;52.270;10.546;2023-02-28T03:00:53;79378.13;;;-147.06;88.83
54453;BME280;40363;52.270;10.546;2023-02-28T03:03:23;79417.22;;;-147.06;90.01
54453;BME280;40363;52.270;10.546;2023-02-28T03:05:56;79417.22;;;-147.06;90.36
54453;BME280;40363;52.270;10.546;2023-02-28T03:08:23;79421.31;;;-147.06;90.37
54453;BME280;40363;52.270;10.546;2023-02-28T03:10:51;79417.22;;;-147.06;89.47
54453;BME280;40363;52.270;10.546;2023-02-28T03:13:34;79425.44;;;-147.06;89.37
54453;BME280;40363;52.270;10.546;2023-02-28T03:16:25;79427.50;;;-147.06;88.68
54453;BME280;40363;52.270;10.546;2023-02-28T03:19:00;79413.09;;;-147.06;87.08
54453;BME280;40363;52.270;10.546;2023-02-28T03:21:35;79411.03;;;-147.06;85.47
54453;BME280;40363;52.270;10.546;2023-02-28T03:24:04;79415.16;;;-147.06;84.55
54453;BME280;40363;52.270;10.546;2023-02-28T03:26:35;79400.75;;;-147.06;85.40
54453;BME280;40363;52.270;10.546;2023-02-28T03:29:09;79384.31;;;-147.06;85.74
54453;BME280;40363;52.270;10.546;2023-02-28T03:31:46;79390.47;;;-147.06;83.94
54453;BME280;40363;52.270;10.546;2023-02-28T03:34:19;79376.06;;;-147.06;82.99
54453;BME280;40363;52.270;10.546;2023-02-28T03:36:55;79367.84;;;-147.06;85.77
54453;BME280;40363;52.270;10.546;2023-02-28T03:39:25;79361.69;;;-147.06;85.88
54453;BME280;40363;52.270;10.546;2023-02-28T03:41:57;79357.56;;;-147.06;84.06
54453;BME280;40363;52.270;10.546;2023-02-28T03:44:28;79347.28;;;-147.06;83.05
54453;BME280;40363;52.270;10.546;2023-02-28T03:46:58;79343.16;;;-147.06;81.99
54453;BME280;40363;52.270;10.546;2023-02-28T03:49:30;79343.16;;;-147.06;82.53
54453;BME280;40363;52.270;10.546;2023-02-28T03:52:02;79334.94;;;-147.06;82.85
54453;BME280;40363;52.270;10.546;2023-02-28T03:54:32;79337.00;;;-147.06;83.14
54453;BME280;40363;52.270;10.546;2023-02-28T03:57:04;79332.88;;;-147.06;83.48
54453;BME280;40363;52.270;10.546;2023-02-28T03:59:37;79332.88;;;-147.06;83.80
54453;BME280;40363;52.270;10.546;2023-02-28T04:02:06;79337.00;;;-147.06;84.39
54453;BME280;40363;52.270;10.546;2023-02-28T04:04:34;79328.78;;;-147.06;84.30
54453;BME280;40363;52.270;10.546;2023-02-28T04:07:04;79330.81;;;-147.06;83.32
54453;BME280;40363;52.270;10.546;2023-02-28T04:09:31;79345.22;;;-147.06;83.01
54453;BME280;40363;52.270;10.546;2023-02-28T04:11:58;79339.06;;;-147.06;81.70
54453;BME280;40363;52.270;10.546;2023-02-28T04:14:25;79339.06;;;-147.06;83.18
54453;BME280;40363;52.270;10.546;2023-02-28T04:16:51;79322.59;;;-147.06;82.06
54453;BME280;40363;52.270;10.546;2023-02-28T04:19:19;79316.44;;;-147.06;80.07
54453;BME280;40363;52.270;10.546;2023-02-28T04:21:47;79302.03;;;-147.06;81.17
54453;BME280;40363;52.270;10.546;2023-02-28T04:24:16;79297.91;;;-147.06;80.68
54453;BME280;40363;52.270;10.546;2023-02-28T04:26:45;79293.81;;;-147.06;79.87
54453;BME280;40363;52.270;10.546;2023-02-28T04:29:13;79297.91;;;-147.06;80.11
54453;BME280;40363;52.270;10.546;2023-02-28T04:31:40;79334.94;;;-147.06;82.38
54453;BME280;40363;52.270;10.546;2023-02-28T04:34:07;79353.44;;;-147.06;84.78
54453;BME280;40363;52.270;10.546;2023-02-28T04:36:33;79353.44;;;-147.06;84.51
54453;BME280;40363;52.270;10.546;2023-02-28T04:39:00;79374.03;;;-147.06;83.78
54453;BME280;40363;52.270;10.546;2023-02-28T04:41:28;79376.06;;;-147.06;84.29
54453;BME280;40363;52.270;10.546;2023-02-28T04:43:55;79382.25;;;-147.06;84.91
54453;BME280;40363;52.270;10.546;2023-02-28T04:46:22;79367.84;;;-147.06;82.57
54453;BME280;40363;52.270;10.546;2023-02-28T04:48:49;79371.97;;;-147.06;81.33
54453;BME280;40363;52.270;10.546;2023-02-28T04:51:17;79363.75;;;-147.06;81.22
54453;BME280;40363;52.270;10.546;2023-02-28T04:53:45;79357.56;;;-147.06;81.15
54453;BME280;40363;52.270;10.546;2023-02-28T04:56:14;79351.41;;;-147.06;81.22
54453;BME280;40363;52.270;10.546;2023-02-28T04:58:42;79355.50;;;-147.06;81.07
54453;BME280;40363;52.270;10.546;2023-02-28T05:01:18;79349.34;;;-147.06;81.37
54453;BME280;40363;52.270;10.546;2023-02-28T05:03:45;79355.50;;;-147.06;81.22
54453;BME280;40363;52.270;10.546;2023-02-28T05:06:13;79367.84;;;-147.06;81.24
54453;BME280;40363;52.270;10.546;2023-02-28T05:08:40;79369.91;;;-147.06;81.13
54453;BME280;40363;52.270;10.546;2023-02-28T05:11:13;79363.75;;;-147.06;81.17
54453;BME280;40363;52.270;10.546;2023-02-28T05:13:41;79363.75;;;-147.06;80.96
54453;BME280;40363;52.270;10.546;2023-02-28T05:16:08;79363.75;;;-147.06;81.14
54453;BME280;40363;52.270;10.546;2023-02-28T05:18:35;79378.13;;;-147.06;81.37
54453;BME280;40363;52.270;10.546;2023-02-28T05:21:02;79374.03;;;-147.06;81.90
54453;BME280;40363;52.270;10.546;2023-02-28T05:23:29;79378.13;;;-147.06;82.10
54453;BME280;40363;52.270;10.546;2023-02-28T05:25:56;79380.19;;;-147.06;82.10
54453;BME280;40363;52.270;10.546;2023-02-28T05:28:22;79374.03;;;-147.06;82.26
54453;BME280;40363;52.270;10.546;2023-02-28T05:30:50;79378.13;;;-147.06;82.29
54453;BME280;40363;52.270;10.546;2023-02-28T05:33:17;79380.19;;;-147.06;82.17
54453;BME280;40363;52.270;10.546;2023-02-28T05:35:44;79371.97;;;-147.06;82.23
54453;BME280;40363;52.270;10.546;2023-02-28T05:38:10;79371.97;;;-147.06;82.24
54453;BME280;40363;52.270;10.546;2023-02-28T05:40:38;79384.31;;;-147.06;82.05
54453;BME280;40363;52.270;10.546;2023-02-28T05:43:04;79380.19;;;-147.06;82.16
54453;BME280;40363;52.270;10.546;2023-02-28T05:45:31;79382.25;;;-147.06;82.83
54453;BME280;40363;52.270;10.546;2023-02-28T05:47:59;79390.47;;;-147.06;82.57
54453;BME280;40363;52.270;10.546;2023-02-28T05:50:25;79392.53;;;-147.06;82.64
54453;BME280;40363;52.270;10.546;2023-02-28T05:52:52;79404.88;;;-147.06;82.90
54453;BME280;40363;52.270;10.546;2023-02-28T05:55:19;79409.00;;;-147.06;82.17
54453;BME280;40363;52.270;10.546;2023-02-28T05:57:45;79404.88;;;-147.06;81.85
54453;BME280;40363;52.270;10.546;2023-02-28T06:00:13;79404.88;;;-147.06;81.80
54453;BME280;40363;52.270;10.546;2023-02-28T06:02:43;79406.94;;;-147.06;81.09
54453;BME280;40363;52.270;10.546;2023-02-28T06:05:14;79417.22;;;-147.06;81.18
54453;BME280;40363;52.270;10.546;2023-02-28T06:07:40;79411.03;;;-147.06;81.28
54453;BME280;40363;52.270;10.546;2023-02-28T06:10:08;79413.09;;;-147.06;81.13
54453;BME280;40363;52.270;10.546;2023-02-28T06:12:36;79421.31;;;-147.06;80.86
54453;BME280;40363;52.270;10.546;2023-02-28T06:15:03;79413.09;;;-147.06;80.57
54453;BME280;40363;52.270;10.546;2023-02-28T06:17:30;79423.38;;;-147.06;80.33
54453;BME280;40363;52.270;10.546;2023-02-28T06:19:56;79425.44;;;-147.06;80.56
54453;BME280;40363;52.270;10.546;2023-02-28T06:22:24;79427.50;;;-147.06;80.46
54453;BME280;40363;52.270;10.546;2023-02-28T06:24:51;79429.56;;;-147.06;80.35
54453;BME280;40363;52.270;10.546;2023-02-28T06:27:19;79423.38;;;-147.06;80.12
54453;BME280;40363;52.270;10.546;2023-02-28T06:29:47;79421.31;;;-147.06;79.78
54453;BME280;40363;52.270;10.546;2023-02-28T06:32:16;79425.44;;;-147.06;79.97
54453;BME280;40363;52.270;10.546;2023-02-28T06:34:43;79421.31;;;-147.06;80.49
54453;BME280;40363;52.270;10.546;2023-02-28T06:37:09;79425.44;;;-147.06;80.15
54453;BME280;40363;52.270;10.546;2023-02-28T06:39:37;79427.50;;;-147.06;80.05
54453;BME280;40363;52.270;10.546;2023-02-28T06:42:04;79437.78;;;-147.06;80.48
54453;BME280;40363;52.270;10.546;2023-02-28T06:44:31;79433.66;;;-147.06;80.05
54453;BME280;40363;52.270;10.546;2023-02-28T06:47:01;79437.78;;;-147.06;80.53
54453;BME280;40363;52.270;10.546;2023-02-28T06:49:28;79443.94;;;-147.06;80.33
54453;BME280;40363;52.270;10.546;2023-02-28T06:51:55;79433.66;;;-147.06;80.72
54453;BME280;40363;52.270;10.546;2023-02-28T06:54:22;79425.44;;;-147.06;79.97
54453;BME280;40363;52.270;10.546;2023-02-28T06:56:50;79421.31;;;-147.06;80.15
54453;BME280;40363;52.270;10.546;2023-02-28T06:59:17;79411.03;;;-147.06;80.08
54453;BME280;40363;52.270;10.546;2023-02-28T07:01:44;79404.88;;;-147.06;79.81
54453;BME280;40363;52.270;10.546;2023-02-28T07:04:11;79402.81;;;-147.06;79.70
54453;BME280;40363;52.270;10.546;2023-02-28T07:06:38;79400.75;;;-147.06;79.59
54453;BME280;40363;52.270;10.546;2023-02-28T07:09:05;79388.41;;;-147.06;78.92
54453;BME280;40363;52.270;10.546;2023-02-28T07:11:32;79388.41;;;-147.06;78.88
54453;BME280;40363;52.270;10.546;2023-02-28T07:14:00;79363.75;;;-147.06;78.58
54453;BME280;40363;52.270;10.546;2023-02-28T07:16:27;79355.50;;;-147.06;78.39
54453;BME280;40363;52.270;10.546;2023-02-28T07:18:54;79339.06;;;-147.06;77.69
54453;BME280;40363;52.270;10.546;2023-02-28T07:21:21;79318.50;;;-147.06;76.86
54453;BME280;40363;52.270;10.546;2023-02-28T07:23:48;79291.75;;;-147.06;75.55
54453;BME280;40363;52.270;10.546;2023-02-28T07:26:16;79256.78;;;-147.06;74.23
54453;BME280;40363;52.270;10.546;2023-02-28T07:28:45;79207.41;;;-147.06;72.73
54453;BME280;40363;52.270;10.546;2023-02-28T07:31:14;79182.75;;;-147.06;71.57
54453;BME280;40363;52.270;10.546;2023-02-28T07:33:41;79174.50;;;-147.06;70.44
54453;BME280;40363;52.270;10.546;2023-02-28T07:36:09;79209.47;;;-147.06;71.07
54453;BME280;40363;52.270;10.546;2023-02-28T07:38:39;79246.50;;;-147.06;72.23
54453;BME280;40363;52.270;10.546;2023-02-28T07:41:06;79273.25;;;-147.06;72.71
54453;BME280;40363;52.270;10.546;2023-02-28T07:43:33;79236.22;;;-147.06;72.28
54453;BME280;40363;52.270;10.546;2023-02-28T07:46:03;79256.78;;;-147.06;72.03
54453;BME280;40363;52.270;10.546;2023-02-28T07:48:31;79260.91;;;-147.06;72.73
54453;BME280;40363;52.270;10.546;2023-02-28T07:50:59;79273.25;;;-147.06;72.78
54453;BME280;40363;52.270;10.546;2023-02-28T07:53:26;79271.19;;;-147.06;73.04
54453;BME280;40363;52.270;10.546;2023-02-28T07:55:55;79256.78;;;-147.06;72.83
54453;BME280;40363;52.270;10.546;2023-02-28T07:58:21;79256.78;;;-147.06;72.56
54453;BME280;40363;52.270;10.546;2023-02-28T08:00:48;79269.13;;;-147.06;72.44
54453;BME280;40363;52.270;10.546;2023-02-28T08:03:15;79260.91;;;-147.06;72.64
54453;BME280;40363;52.270;10.546;2023-02-28T08:05:44;79269.13;;;-147.06;73.04
54453;BME280;40363;52.270;10.546;2023-02-28T08:08:11;79180.69;;;-147.06;71.21
54453;BME280;40363;52.270;10.546;2023-02-28T08:10:38;79211.53;;;-147.06;70.28
54453;BME280;40363;52.270;10.546;2023-02-28T08:13:05;79221.81;;;-147.06;70.44
54453;BME280;40363;52.270;10.546;2023-02-28T08:15:31;79195.06;;;-147.06;70.73
54453;BME280;40363;52.270;10.546;2023-02-28T08:17:58;79232.09;;;-147.06;70.95
54453;BME280;40363;52.270;10.546;2023-02-28T08:20:26;79232.09;;;-147.06;72.13
54453;BME280;40363;52.270;10.546;2023-02-28T08:22:54;79219.75;;;-147.06;72.13
54453;BME280;40363;52.270;10.546;2023-02-28T08:25:21;79236.22;;;-147.06;71.90
54453;BME280;40363;52.270;10.546;2023-02-28T08:27:50;79186.84;;;-147.06;72.11
54453;BME280;40363;52.270;10.546;2023-02-28T08:30:17;78921.53;;;-147.06;65.65
54453;BME280;40363;52.270;10.546;2023-02-28T08:32:44;78851.63;;;-147.06;62.58
54453;BME280;40363;52.270;10.546;2023-02-28T08:35:11;78746.72;;;-147.06;59.46
54453;BME280;40363;52.270;10.546;2023-02-28T08:37:37;78804.31;;;-147.06;59.98
54453;BME280;40363;52.270;10.546;2023-02-28T08:40:07;78781.69;;;-147.06;59.34
54453;BME280;40363;52.270;10.546;2023-02-28T08:42:34;78695.31;;;-147.06;57.21
54453;BME280;40363;52.270;10.546;2023-02-28T08:45:01;78685.03;;;-147.06;56.50
54453;BME280;40363;52.270;10.546;2023-02-28T08:47:27;78621.28;;;-147.06;55.46
54453;BME280;40363;52.270;10.546;2023-02-28T08:49:54;78674.75;;;-147.06;55.18
54453;BME280;40363;52.270;10.546;2023-02-28T08:52:20;78611.00;;;-147.06;54.92
54453;BME280;40363;52.270;10.546;2023-02-28T08:54:47;78567.81;;;-147.06;54.00
54453;BME280;40363;52.270;10.546;2023-02-28T08:57:16;78536.97;;;-147.06;53.66
54453;BME280;40363;52.270;10.546;2023-02-28T08:59:42;78479.38;;;-147.06;52.66
54453;BME280;40363;52.270;10.546;2023-02-28T09:02:10;78557.53;;;-147.06;53.94
54453;BME280;40363;52.270;10.546;2023-02-28T09:04:38;78504.06;;;-147.06;53.21
54453;BME280;40363;52.270;10.546;2023-02-28T09:07:05;78510.22;;;-147.06;52.55
54453;BME280;40363;52.270;10.546;2023-02-28T09:09:31;78497.91;;;-147.06;52.79
54453;BME280;40363;52.270;10.546;2023-02-28T09:11:58;78528.75;;;-147.06;53.73
54453;BME280;40363;52.270;10.546;2023-02-28T09:14:26;78506.13;;;-147.06;52.94
54453;BME280;40363;52.270;10.546;2023-02-28T09:16:53;78528.75;;;-147.06;53.99
54453;BME280;40363;52.270;10.546;2023-02-28T09:19:20;78442.38;;;-147.06;53.63
54453;BME280;40363;52.270;10.546;2023-02-28T09:21:47;78430.03;;;-147.06;51.88
54453;BME280;40363;52.270;10.546;2023-02-28T09:24:14;78446.50;;;-147.06;52.62
54453;BME280;40363;52.270;10.546;2023-02-28T09:26:40;78479.38;;;-147.06;52.76
54453;BME280;40363;52.270;10.546;2023-02-28T09:29:07;78407.41;;;-147.06;51.27
54453;BME280;40363;52.270;10.546;2023-02-28T09:31:35;78479.38;;;-147.06;53.06
54453;BME280;40363;52.270;10.546;2023-02-28T09:34:03;78397.13;;;-147.06;52.37
54453;BME280;40363;52.270;10.546;2023-02-28T09:36:30;78407.41;;;-147.06;52.44
54453;BME280;40363;52.270;10.546;2023-02-28T09:38:58;78376.56;;;-147.06;51.35
54453;BME280;40363;52.270;10.546;2023-02-28T09:41:26;78469.09;;;-147.06;52.75
54453;BME280;40363;52.270;10.546;2023-02-28T09:43:56;78479.38;;;-147.06;53.40
54453;BME280;40363;52.270;10.546;2023-02-28T09:46:31;78456.78;;;-147.06;52.86
54453;BME280;40363;52.270;10.546;2023-02-28T09:49:02;78489.66;;;-147.06;53.93
54453;BME280;40363;52.270;10.546;2023-02-28T09:51:37;78446.50;;;-147.06;51.85
54453;BME280;40363;52.270;10.546;2023-02-28T09:54:14;78434.16;;;-147.06;51.92
54453;BME280;40363;52.270;10.546;2023-02-28T09:56:45;78555.47;;;-147.06;50.83
54453;BME280;40363;52.270;10.546;2023-02-28T10:02:15;78619.22;;;-147.06;52.06
54453;BME280;40363;52.270;10.546;2023-02-28T10:04:51;78557.53;;;-147.06;51.33
54453;BME280;40363;52.270;10.546;2023-02-28T10:07:34;78576.03;;;-147.06;50.16
54453;BME280;40363;52.270;10.546;2023-02-28T10:10:10;78452.66;;;-147.06;47.37
54453;BME280;40363;52.270;10.546;2023-02-28T10:12:44;78477.34;;;-147.06;48.39
54453;BME280;40363;52.270;10.546;2023-02-28T10:15:14;78615.13;;;-147.06;51.85
54453;BME280;40363;52.270;10.546;2023-02-28T10:17:43;78668.59;;;-147.06;54.39
54453;BME280;40363;52.270;10.546;2023-02-28T10:20:18;78746.72;;;-147.06;54.99
54453;BME280;40363;52.270;10.546;2023-02-28T10:22:52;78746.72;;;-147.06;55.07
54453;BME280;40363;52.270;10.546;2023-02-28T10:25:21;78711.78;;;-147.06;53.38
54453;BME280;40363;52.270;10.546;2023-02-28T10:27:49;78761.13;;;-147.06;55.21
54453;BME280;40363;52.270;10.546;2023-02-28T10:30:16;78656.25;;;-147.06;52.26
54453;BME280;40363;52.270;10.546;2023-02-28T10:32:48;78701.50;;;-147.06;52.96
54453;BME280;40363;52.270;10.546;2023-02-28T10:35:18;78818.72;;;-147.06;55.51
54453;BME280;40363;52.270;10.546;2023-02-28T10:37:46;78890.69;;;-147.06;50.20
54453;BME280;40363;52.270;10.546;2023-02-28T10:40:28;78845.44;;;-147.06;50.87
54453;BME280;40363;52.270;10.546;2023-02-28T10:42:56;78820.75;;;-147.06;50.10
54453;BME280;40363;52.270;10.546;2023-02-28T10:45:23;78812.53;;;-147.06;50.00
54453;BME280;40363;52.270;10.546;2023-02-28T10:47:53;78680.91;;;-147.06;46.47
54453;BME280;40363;52.270;10.546;2023-02-28T10:50:33;78578.09;;;-147.06;45.31
54453;BME280;40363;52.270;10.546;2023-02-28T10:53:17;78504.06;;;-147.06;43.50
54453;BME280;40363;52.270;10.546;2023-02-28T10:55:56;78586.31;;;-147.06;44.32
54453;BME280;40363;52.270;10.546;2023-02-28T10:58:24;78450.59;;;-147.06;42.07
54453;BME280;40363;52.270;10.546;2023-02-28T11:00:51;78386.84;;;-147.06;42.25
54453;BME280;40363;52.270;10.546;2023-02-28T11:03:29;78397.13;;;-147.06;42.35
54453;BME280;40363;52.270;10.546;2023-02-28T11:05:58;78555.47;;;-147.06;43.40
54453;BME280;40363;52.270;10.546;2023-02-28T11:08:25;78754.97;;;-147.06;44.48
54453;BME280;40363;52.270;10.546;2023-02-28T11:10:56;78775.53;;;-147.06;46.50
54453;BME280;40363;52.270;10.546;2023-02-28T11:13:27;78711.78;;;-147.06;46.24
54453;BME280;40363;52.270;10.546;2023-02-28T11:15:57;78757.00;;;-147.06;46.81
54453;BME280;40363;52.270;10.546;2023-02-28T11:18:28;78687.09;;;-147.06;46.53
54453;BME280;40363;52.270;10.546;2023-02-28T11:20:59;78728.22;;;-147.06;46.20
54453;BME280;40363;52.270;10.546;2023-02-28T11:23:30;78726.16;;;-147.06;48.45
54453;BME280;40363;52.270;10.546;2023-02-28T11:26:01;78685.03;;;-147.06;45.44
54453;BME280;40363;52.270;10.546;2023-02-28T11:28:31;78726.16;;;-147.06;46.02
54453;BME280;40363;52.270;10.546;2023-02-28T11:31:01;78701.50;;;-147.06;46.68
54453;BME280;40363;52.270;10.546;2023-02-28T11:33:30;78728.22;;;-147.06;46.64
54453;BME280;40363;52.270;10.546;2023-02-28T11:36:00;78715.88;;;-147.06;45.98
54453;BME280;40363;52.270;10.546;2023-02-28T11:38:27;78763.19;;;-147.06;46.47
54453;BME280;40363;52.270;10.546;2023-02-28T11:41:18;78767.28;;;-147.06;45.69
54453;BME280;40363;52.270;10.546;2023-02-28T11:44:02;78740.56;;;-147.06;46.71
54453;BME280;40363;52.270;10.546;2023-02-28T11:46:37;78697.38;;;-147.06;47.07
54453;BME280;40363;52.270;10.546;2023-02-28T11:49:18;78685.03;;;-147.06;46.43
54453;BME280;40363;52.270;10.546;2023-02-28T11:51:53;78728.22;;;-147.06;46.92
54453;BME280;40363;52.270;10.546;2023-02-28T11:54:41;78709.72;;;-147.06;46.28
54453;BME280;40363;52.270;10.546;2023-02-28T11:57:22;78769.34;;;-147.06;44.54
54453;BME280;40363;52.270;10.546;2023-02-28T12:00:01;78787.88;;;-147.06;45.61
54453;BME280;40363;52.270;10.546;2023-02-28T12:02:31;78732.34;;;-147.06;44.89
54453;BME280;40363;52.270;10.546;2023-02-28T12:05:16;78717.94;;;-147.06;45.98
54453;BME280;40363;52.270;10.546;2023-02-28T12:07:56;78715.88;;;-147.06;45.31
54453;BME280;40363;52.270;10.546;2023-02-28T12:10:26;78687.09;;;-147.06;44.91
54453;BME280;40363;52.270;10.546;2023-02-28T12:13:10;78674.75;;;-147.06;44.14
54453;BME280;40363;52.270;10.546;2023-02-28T12:15:57;78666.53;;;-147.06;44.67
54453;BME280;40363;52.270;10.546;2023-02-28T12:18:35;78689.16;;;-147.06;44.22
54453;BME280;40363;52.270;10.546;2023-02-28T12:21:14;78654.19;;;-147.06;44.38
54453;BME280;40363;52.270;10.546;2023-02-28T12:23:58;78685.03;;;-147.06;45.85
54453;BME280;40363;52.270;10.546;2023-02-28T12:26:34;78699.44;;;-147.06;45.36
54453;BME280;40363;52.270;10.546;2023-02-28T12:29:05;78678.88;;;-147.06;45.82
54453;BME280;40363;52.270;10.546;2023-02-28T12:31:40;78699.44;;;-147.06;45.87
54453;BME280;40363;52.270;10.546;2023-02-28T12:34:11;78697.38;;;-147.06;45.13
54453;BME280;40363;52.270;10.546;2023-02-28T12:36:41;78664.47;;;-147.06;45.69
54453;BME280;40363;52.270;10.546;2023-02-28T12:39:15;78635.69;;;-147.06;45.14
54453;BME280;40363;52.270;10.546;2023-02-28T12:41:48;78627.44;;;-147.06;44.53
54453;BME280;40363;52.270;10.546;2023-02-28T12:44:20;78674.75;;;-147.06;45.01
54453;BME280;40363;52.270;10.546;2023-02-28T12:46:50;78685.03;;;-147.06;44.48
54453;BME280;40363;52.270;10.546;2023-02-28T12:49:19;78650.06;;;-147.06;44.96